New Yoshino — JG5527 — position and weather

sailwx.info

Track history (hours):
 
Tides and Currents Weather Stations Pressure Air Temp Water Temp Dewpoint Dewpoint Depression Visibility Wind Speed Wind Dir Waves Ship Positions

New Yoshino

Last reported at 2016-Aug-24 06:30 UTC. Time now 2016-Aug-25 08:01 UTC.
Position N 36°11' E 140°47'.

Length 102 m; draft 6.7 m.

Type: Tanker. MMSI: 431300724.

Date/timePositionNaut miles runAvg speedWind from/ knotsBaromVisibWave heightAir tempDewpointWater temp
2016-Aug-24 06:30N 36°11' E 140°47'17 2.4
2016-Aug-23 23:33N 35°55' E 140°41'5 5.1
2016-Aug-23 22:33N 35°59' E 140°44'1 0.3
2016-Aug-23 19:09N 35°58' E 140°45'3 5.5
2016-Aug-23 18:33N 36°01' E 140°45'1413.7
2016-Aug-23 17:33N 36°15' E 140°48'1813.9
2016-Aug-23 16:18N 36°32' E 140°54'1114.3
2016-Aug-23 15:33N 36°42' E 140°58'  
2016-Aug-19 00:33N 36°34' E 140°54'1212.1
2016-Aug-18 23:33N 36°22' E 140°55'1312.7
2016-Aug-18 22:33N 36°09' E 140°56'1312.7
2016-Aug-18 21:33N 35°56' E 140°57'1312.7
2016-Aug-18 20:33N 35°44' E 140°57'1312.8
2016-Aug-18 19:33N 35°32' E 140°50'1414.3
2016-Aug-18 18:33N 35°21' E 140°39'1514.0
2016-Aug-18 17:31N 35°10' E 140°28'1313.8
2016-Aug-18 16:33N 35°00' E 140°17'1413.5
2016-Aug-18 15:29N 34°53' E 140°01'1212.1
2016-Aug-18 14:31N 34°52' E 139°47'1212.1
2016-Aug-18 13:33N 35°03' E 139°43'1313.4
2016-Aug-18 12:33N 35°16' E 139°46'1111.0
2016-Aug-18 11:33N 35°27' E 139°46'4 4.4
2016-Aug-18 10:33N 35°31' E 139°46'0 0.0
2016-Aug-18 09:33N 35°31' E 139°46'0 0.0
2016-Aug-18 08:30N 35°31' E 139°46'0 0.0
2016-Aug-18 07:33N 35°31' E 139°46'0 0.0
2016-Aug-18 06:33N 35°31' E 139°46'0 0.0
2016-Aug-18 05:33N 35°31' E 139°46'0 0.0
2016-Aug-18 04:30N 35°31' E 139°46'0 0.0
2016-Aug-18 03:33N 35°31' E 139°46'0 0.0
2016-Aug-18 02:33N 35°31' E 139°46'0 0.0
2016-Aug-18 01:33N 35°31' E 139°46'0 0.0
2016-Aug-18 00:33N 35°31' E 139°46'1 1.1
2016-Aug-17 23:34N 35°30' E 139°45'7 7.0
2016-Aug-17 22:34N 35°23' E 139°45'0 0.0
2016-Aug-17 21:33N 35°23' E 139°45'0 0.1
2016-Aug-17 20:33N 35°23' E 139°45'0 0.0
2016-Aug-17 19:33N 35°23' E 139°45'0 0.0
2016-Aug-17 18:33N 35°23' E 139°45'0 0.0
2016-Aug-17 17:33N 35°23' E 139°45'0 0.0
2016-Aug-17 16:33N 35°23' E 139°45'0 0.0
2016-Aug-17 15:33N 35°23' E 139°45'1 0.6
2016-Aug-17 14:33N 35°23' E 139°45'1111.2
2016-Aug-17 13:33N 35°12' E 139°47'  
2016-Aug-15 06:33N 35°07' E 139°43'2210.8
2016-Aug-15 04:33N 35°29' E 139°47'3 2.8
2016-Aug-15 03:32N 35°31' E 139°46'0 0.0
2016-Aug-15 02:29N 35°31' E 139°46'0 0.0
2016-Aug-15 01:32N 35°31' E 139°46'0 0.0
2016-Aug-15 00:32N 35°31' E 139°46'1 0.8
2016-Aug-14 23:33N 35°30' E 139°46'6 6.4
2016-Aug-14 22:34N 35°24' E 139°45'0 0.1
2016-Aug-14 21:31N 35°24' E 139°45'0 0.1
2016-Aug-14 20:25N 35°24' E 139°45'0 0.0
2016-Aug-14 19:31N 35°24' E 139°45'0 0.0
2016-Aug-14 18:31N 35°24' E 139°45'0 0.0
2016-Aug-14 17:31N 35°24' E 139°45'0 0.0
2016-Aug-14 16:31N 35°24' E 139°45'0 0.0
2016-Aug-14 15:31N 35°24' E 139°45'0 0.0
2016-Aug-14 14:31N 35°24' E 139°45'0 0.0
2016-Aug-14 13:28N 35°24' E 139°45'0 0.1
2016-Aug-14 12:31N 35°24' E 139°45'0 0.0
2016-Aug-14 11:31N 35°24' E 139°45'0 0.0
2016-Aug-14 10:31N 35°24' E 139°45'0 0.0
2016-Aug-14 09:31N 35°24' E 139°45'7 7.0
2016-Aug-14 08:33N 35°29' E 139°51'8 7.6
2016-Aug-14 07:31N 35°29' E 140°01'0 0.0
2016-Aug-14 06:31N 35°29' E 140°01'  
Track history (hours):
 
Tides and Currents Weather Stations Pressure Air Temp Water Temp Dewpoint Dewpoint Depression Visibility Wind Speed Wind Dir Waves Ship Positions

New Yoshino

Last reported at 2016-Aug-24 06:30 UTC. Time now 2016-Aug-25 08:01 UTC.
Position N 36°11' E 140°47'.

Length 102 m; draft 6.7 m.

Type: Tanker. MMSI: 431300724.

Date/timePositionNaut miles runAvg speedWind from/ knotsBaromVisibWave heightAir tempDewpointWater temp
2016-Aug-24 06:30N 36°11' E 140°47'17 2.4
2016-Aug-23 23:33N 35°55' E 140°41'5 5.1
2016-Aug-23 22:33N 35°59' E 140°44'1 0.3
2016-Aug-23 19:09N 35°58' E 140°45'3 5.5
2016-Aug-23 18:33N 36°01' E 140°45'1413.7
2016-Aug-23 17:33N 36°15' E 140°48'1813.9
2016-Aug-23 16:18N 36°32' E 140°54'1114.3
2016-Aug-23 15:33N 36°42' E 140°58'  
2016-Aug-19 00:33N 36°34' E 140°54'1212.1
2016-Aug-18 23:33N 36°22' E 140°55'1312.7
2016-Aug-18 22:33N 36°09' E 140°56'1312.7
2016-Aug-18 21:33N 35°56' E 140°57'1312.7
2016-Aug-18 20:33N 35°44' E 140°57'1312.8
2016-Aug-18 19:33N 35°32' E 140°50'1414.3
2016-Aug-18 18:33N 35°21' E 140°39'1514.0
2016-Aug-18 17:31N 35°10' E 140°28'1313.8
2016-Aug-18 16:33N 35°00' E 140°17'1413.5
2016-Aug-18 15:29N 34°53' E 140°01'1212.1
2016-Aug-18 14:31N 34°52' E 139°47'1212.1
2016-Aug-18 13:33N 35°03' E 139°43'1313.4
2016-Aug-18 12:33N 35°16' E 139°46'1111.0
2016-Aug-18 11:33N 35°27' E 139°46'4 4.4
2016-Aug-18 10:33N 35°31' E 139°46'0 0.0
2016-Aug-18 09:33N 35°31' E 139°46'0 0.0
2016-Aug-18 08:30N 35°31' E 139°46'0 0.0
2016-Aug-18 07:33N 35°31' E 139°46'0 0.0
2016-Aug-18 06:33N 35°31' E 139°46'0 0.0
2016-Aug-18 05:33N 35°31' E 139°46'0 0.0
2016-Aug-18 04:30N 35°31' E 139°46'0 0.0
2016-Aug-18 03:33N 35°31' E 139°46'0 0.0
2016-Aug-18 02:33N 35°31' E 139°46'0 0.0
2016-Aug-18 01:33N 35°31' E 139°46'0 0.0
2016-Aug-18 00:33N 35°31' E 139°46'1 1.1
2016-Aug-17 23:34N 35°30' E 139°45'7 7.0
2016-Aug-17 22:34N 35°23' E 139°45'0 0.0
2016-Aug-17 21:33N 35°23' E 139°45'0 0.1
2016-Aug-17 20:33N 35°23' E 139°45'0 0.0
2016-Aug-17 19:33N 35°23' E 139°45'0 0.0
2016-Aug-17 18:33N 35°23' E 139°45'0 0.0
2016-Aug-17 17:33N 35°23' E 139°45'0 0.0
2016-Aug-17 16:33N 35°23' E 139°45'0 0.0
2016-Aug-17 15:33N 35°23' E 139°45'1 0.6
2016-Aug-17 14:33N 35°23' E 139°45'1111.2
2016-Aug-17 13:33N 35°12' E 139°47'  
2016-Aug-15 06:33N 35°07' E 139°43'2210.8
2016-Aug-15 04:33N 35°29' E 139°47'3 2.8
2016-Aug-15 03:32N 35°31' E 139°46'0 0.0
2016-Aug-15 02:29N 35°31' E 139°46'0 0.0
2016-Aug-15 01:32N 35°31' E 139°46'0 0.0
2016-Aug-15 00:32N 35°31' E 139°46'1 0.8
2016-Aug-14 23:33N 35°30' E 139°46'6 6.4
2016-Aug-14 22:34N 35°24' E 139°45'0 0.1
2016-Aug-14 21:31N 35°24' E 139°45'0 0.1
2016-Aug-14 20:25N 35°24' E 139°45'0 0.0
2016-Aug-14 19:31N 35°24' E 139°45'0 0.0
2016-Aug-14 18:31N 35°24' E 139°45'0 0.0
2016-Aug-14 17:31N 35°24' E 139°45'0 0.0
2016-Aug-14 16:31N 35°24' E 139°45'0 0.0
2016-Aug-14 15:31N 35°24' E 139°45'0 0.0
2016-Aug-14 14:31N 35°24' E 139°45'0 0.0
2016-Aug-14 13:28N 35°24' E 139°45'0 0.1
2016-Aug-14 12:31N 35°24' E 139°45'0 0.0
2016-Aug-14 11:31N 35°24' E 139°45'0 0.0
2016-Aug-14 10:31N 35°24' E 139°45'0 0.0
2016-Aug-14 09:31N 35°24' E 139°45'7 7.0
2016-Aug-14 08:33N 35°29' E 139°51'8 7.6
2016-Aug-14 07:31N 35°29' E 140°01'0 0.0
2016-Aug-14 06:31N 35°29' E 140°01'  

Dump ship's entire track history